Airfield :
LOGIN :

Register | Disclaimer

   EN    FR    IT 

 










Legend :    VFR   Marginal VFR   IFR   Intensive IFR   Very Intensive IFR
Visi :
Ceiling :
>= 8 km
>= 3000ft
5 to 8 km
1000 to 3000 ft
1500m to 5 km
500 to 1000 ft
800 to 1500m
200 to 500 ft
< 800m
< 200 ft
Symbols :   Thunderstorms  Fog  Heavy snow  Heavy precipitations  Wind > 20 kt
SIGMETs :     Misc.  Thunderstorms  Icing  Turbulence  Mountain Waves  Volcanic Ashes







- Airport Elevation : 56 ft
- IATA code : BZR
- Download approach charts


LFMU - Beziers / Vias

CURRENT METAR :
  • 170830Z AUTO 09011KT 6000 -RA FEW019/// BKN024/// BKN029/// ///TCU 13/11 Q1019 TEMPO RA BECMG 16010KT

EXPIRED METARs :
  • 170800Z AUTO 14003KT 080V200 9999 SCT028/// BKN038/// OVC045/// ///TCU 13/11 Q1019 TEMPO RA
  • 170730Z AUTO 13009KT 100V160 9000 -RA BKN029/// OVC036/// ///TCU 14/11 Q1019 TEMPO RA
  • 170700Z AUTO 06004KT 020V140 9999 -RA BKN028/// BKN035/// BKN041/// ///TCU 14/11 Q1019 TEMPO RA
  • 170630Z AUTO 14006KT 9999 -RA FEW032 BKN040 OVC046 14/11 Q1019 TEMPO RA SCT020TCU OVC030
  • 170600Z AUTO 13006KT 090V160 9999 -RA FEW024/// BKN030/// OVC041/// ///TCU 14/11 Q1019 TEMPO RA

TAF TAF LFMU
Valid from the 17 at 09:00 until the 18 at 09:00 UTC


170800Z 1709/1809 09008KT 9999 BKN025 BKN035
TEMPO 1709/1713 -SHRA BKN030TCU BKN050
BECMG 1713/1715 04015KT OVC045
TEMPO 1713/1720 4000 SHRA
ATIS : +33 4 67 90 88 88
No reported NOTAMs for that airfield.



MET'MAP, your aeronautical weather chart ! - Copyright ORBIFLY December 2007 - Disclaimer

ORBIFLY MET'MAP TEAM :

Programming & Development : Alexandra Zaïnal
Concept & Development : Baudouin d'Aumeries
Co-Development & Prog : Marc-Olivier Méhu
Technical & hardware support : Manuel Goepfert

Contact : metmap@orbifly.com




SOURCES & CREDITS :

   NOAA